Aviation Digital Data Service (ADDS)

Output produced by METARs form (1121 UTC 26 May 2017)
found at http://bcaws.aviationweather.gov/adds/metars/
 
METAR text: KO22 261055Z AUTO 00000KT 10SM CLR 08/07 A2988 RMK AO1
Conditions at: KO22 (COLUMBIA , CA, US) observed 1055 UTC 26 May 2017
Temperature: 8.0°C (46°F)
Dewpoint: 7.0°C (45°F) [RH = 93%]
Pressure (altimeter): 29.88 inches Hg (1011.9 mb)
Winds: calm
Visibility: 10 or more miles (16+ km)
Ceiling: at least 12,000 feet AGL
Clouds: sky clear below 12,000 feet AGL
Weather: automated observation with no human augmentation;
there may or may not be significant weather present at this time